createdAt,value
2023-05-01T00:02:28.041Z,4.53
2023-05-01T00:05:00.503Z,4.43
2023-05-01T00:07:33.650Z,4.88
2023-05-01T00:10:05.761Z,4.30
2023-05-01T00:12:37.814Z,4.30
2023-05-01T00:15:11.358Z,4.45
2023-05-01T00:17:46.410Z,4.80
2023-05-01T00:20:18.151Z,4.90
2023-05-01T00:22:50.184Z,4.90
2023-05-01T00:25:22.550Z,4.75
2023-05-01T00:27:54.760Z,4.80
2023-05-01T00:30:28.131Z,5.13
2023-05-01T00:33:03.388Z,5.57
2023-05-01T00:35:37.076Z,5.53
2023-05-01T00:38:09.716Z,4.95
2023-05-01T00:40:47.036Z,5.22
2023-05-01T00:43:19.823Z,5.28
2023-05-01T00:45:51.971Z,5.65
2023-05-01T00:48:28.184Z,5.38
2023-05-01T00:51:01.715Z,5.47
2023-05-01T00:53:34.666Z,5.15
2023-05-01T00:56:09.959Z,5.68
2023-05-01T00:58:42.469Z,5.75
2023-05-01T01:01:15.657Z,5.55
2023-05-01T01:03:51.545Z,6.20
2023-05-01T01:06:31.722Z,6.00
2023-05-01T01:09:16.642Z,6.47
2023-05-01T01:12:01.282Z,6.32
2023-05-01T01:14:39.874Z,6.25
2023-05-01T01:17:19.768Z,6.20
2023-05-01T01:20:17.801Z,6.20
2023-05-01T01:22:54.541Z,6.22
2023-05-01T01:25:50.774Z,6.53
2023-05-01T01:28:46.751Z,6.88
2023-05-01T01:31:24.212Z,6.55
2023-05-01T01:34:08.103Z,6.85
2023-05-01T01:36:50.089Z,6.25
2023-05-01T01:39:34.004Z,6.60
2023-05-01T01:42:13.072Z,6.38
2023-05-01T01:45:03.171Z,7.15
2023-05-01T01:47:38.014Z,7.03
2023-05-01T01:50:16.292Z,7.07
2023-05-01T01:52:52.524Z,6.82
2023-05-01T01:55:30.941Z,7.07
2023-05-01T01:58:05.385Z,7.07
2023-05-01T02:00:39.311Z,6.40
2023-05-01T02:03:14.251Z,6.55
2023-05-01T02:05:51.488Z,6.93
2023-05-01T02:08:26.778Z,7.35
2023-05-01T02:11:02.204Z,7.18
2023-05-01T02:13:36.714Z,6.95
2023-05-01T02:16:09.944Z,6.97
2023-05-01T02:18:43.970Z,7.28
2023-05-01T02:21:19.433Z,7.20
2023-05-01T02:23:51.863Z,7.32
2023-05-01T02:26:28.944Z,7.43
2023-05-01T02:29:01.295Z,7.90
2023-05-01T02:31:33.300Z,7.65
2023-05-01T02:34:05.777Z,7.35
2023-05-01T02:36:40.510Z,7.93
2023-05-01T02:39:13.124Z,7.55
2023-05-01T02:41:48.207Z,7.85
2023-05-01T02:44:22.716Z,8.20
2023-05-01T02:46:57.681Z,8.00
2023-05-01T02:49:31.907Z,7.93
2023-05-01T02:52:07.287Z,8.00
2023-05-01T02:54:39.875Z,7.97
2023-05-01T02:57:14.087Z,8.57
2023-05-01T02:59:46.387Z,7.88
2023-05-01T03:02:18.584Z,8.32
2023-05-01T03:04:50.737Z,8.13
2023-05-01T03:07:25.287Z,8.63
2023-05-01T03:09:57.687Z,8.82
2023-05-01T03:12:29.761Z,8.10
2023-05-01T03:15:02.384Z,8.05
2023-05-01T03:17:34.604Z,8.77
2023-05-01T03:20:07.625Z,7.90
2023-05-01T03:22:42.406Z,8.30
2023-05-01T03:25:14.620Z,8.13
2023-05-01T03:27:46.540Z,7.82
2023-05-01T03:30:18.903Z,7.93
2023-05-01T03:32:50.764Z,8.25
2023-05-01T03:35:23.252Z,6.90
2023-05-01T03:37:57.583Z,8.15
2023-05-01T03:40:30.124Z,7.60
2023-05-01T03:43:02.142Z,7.50
2023-05-01T03:45:34.210Z,7.78
2023-05-01T03:48:06.393Z,7.88
2023-05-01T03:50:38.564Z,7.47
2023-05-01T03:53:13.733Z,7.10
2023-05-01T03:55:46.061Z,7.68
2023-05-01T03:58:18.273Z,7.05
2023-05-01T04:00:51.413Z,7.55
2023-05-01T04:03:23.754Z,7.55
2023-05-01T04:05:56.397Z,6.93
2023-05-01T04:08:31.383Z,7.72
2023-05-01T04:11:03.995Z,6.65
2023-05-01T04:13:36.325Z,7.65
2023-05-01T04:16:10.070Z,7.38
2023-05-01T04:18:43.018Z,6.95
2023-05-01T04:21:18.154Z,7.35
2023-05-01T04:23:52.983Z,7.20
2023-05-01T04:26:25.547Z,7.53
2023-05-01T04:28:57.608Z,7.18
2023-05-01T04:31:30.149Z,7.70
2023-05-01T04:34:02.333Z,6.70
2023-05-01T04:36:34.803Z,7.07
2023-05-01T04:39:09.881Z,7.43
2023-05-01T04:41:42.445Z,7.00
2023-05-01T04:44:14.664Z,7.13
2023-05-01T04:46:47.045Z,7.47
2023-05-01T04:49:19.744Z,6.53
2023-05-01T04:51:52.251Z,6.43
2023-05-01T04:54:28.510Z,6.30
2023-05-01T04:57:00.753Z,6.82
2023-05-01T04:59:33.062Z,6.60
2023-05-01T05:02:05.884Z,6.53
2023-05-01T05:04:38.213Z,6.03
2023-05-01T05:07:10.753Z,6.90
2023-05-01T05:09:45.382Z,6.60
2023-05-01T05:12:17.971Z,6.38
2023-05-01T05:14:49.737Z,6.40
2023-05-01T05:17:36.984Z,6.38
2023-05-01T05:20:10.379Z,6.28
2023-05-01T05:22:42.750Z,6.75
2023-05-01T05:25:17.327Z,6.60
2023-05-01T05:27:49.590Z,6.22
2023-05-01T05:30:21.673Z,6.38
2023-05-01T05:32:54.060Z,6.10
2023-05-01T05:35:26.095Z,6.55
2023-05-01T05:37:58.909Z,6.35
2023-05-01T05:40:33.881Z,6.45
2023-05-01T05:43:06.148Z,6.50
2023-05-01T05:45:38.065Z,5.88
2023-05-01T05:48:10.474Z,6.00
2023-05-01T05:50:43.117Z,6.28
2023-05-01T05:53:15.557Z,6.13
2023-05-01T05:56:02.973Z,5.70
2023-05-01T05:58:35.195Z,5.57
2023-05-01T06:01:32.827Z,5.47
2023-05-01T06:04:04.950Z,6.05
2023-05-01T06:06:38.010Z,5.68
2023-05-01T06:09:13.218Z,5.75
2023-05-01T06:11:48.168Z,6.00
2023-05-01T06:14:20.276Z,5.95
2023-05-01T06:16:52.265Z,5.20
2023-05-01T06:19:24.530Z,5.20
2023-05-01T06:21:56.663Z,5.20
2023-05-01T06:24:29.477Z,5.65
2023-05-01T06:27:08.797Z,4.93
2023-05-01T06:29:41.132Z,5.88
2023-05-01T06:32:13.045Z,5.05
2023-05-01T06:34:45.402Z,4.95
2023-05-01T06:37:17.224Z,5.07
2023-05-01T06:39:50.870Z,4.45
2023-05-01T06:45:24.870Z,5.00
2023-05-01T06:47:56.066Z,4.95
2023-05-01T06:50:29.422Z,4.70
2023-05-01T06:53:03.415Z,4.68
2023-05-01T06:55:36.013Z,4.90
2023-05-01T06:58:22.395Z,4.60
2023-05-01T07:00:59.520Z,5.15
2023-05-01T07:03:31.579Z,4.22
2023-05-01T07:06:04.861Z,4.40
2023-05-01T07:08:36.801Z,4.70
2023-05-01T07:11:09.327Z,4.78
2023-05-01T07:13:41.319Z,4.70
2023-05-01T07:16:16.892Z,4.60
2023-05-01T07:18:49.342Z,4.43
2023-05-01T07:21:21.949Z,4.07
2023-05-01T07:23:53.963Z,4.57
2023-05-01T07:26:26.638Z,4.03
2023-05-01T07:28:58.665Z,4.22
2023-05-01T07:31:33.986Z,4.43
2023-05-01T07:34:06.001Z,4.32
2023-05-01T07:36:38.847Z,4.97
2023-05-01T07:39:10.801Z,4.10
2023-05-01T07:41:43.281Z,4.55
2023-05-01T07:44:15.343Z,4.18
2023-05-01T07:46:50.535Z,4.00
2023-05-01T07:52:11.936Z,4.22
2023-05-01T07:54:43.977Z,4.43
2023-05-01T07:57:20.427Z,4.50
2023-05-01T07:59:52.497Z,4.20
2023-05-01T08:02:27.633Z,4.10
2023-05-01T08:05:00.433Z,3.47
2023-05-01T08:07:33.321Z,4.28
2023-05-01T08:10:05.766Z,4.13
2023-05-01T08:12:40.180Z,4.28
2023-05-01T08:15:13.290Z,4.30
2023-05-01T08:17:48.237Z,3.60
2023-05-01T08:20:20.399Z,3.70
2023-05-01T08:22:56.347Z,3.28
2023-05-01T08:25:34.405Z,3.53
2023-05-01T08:28:07.036Z,4.03
2023-05-01T08:30:39.050Z,3.60
2023-05-01T08:33:14.035Z,3.60
2023-05-01T08:35:46.120Z,3.03
2023-05-01T08:38:18.685Z,3.50
2023-05-01T08:40:57.395Z,3.65
2023-05-01T08:43:31.341Z,3.83
2023-05-01T08:46:03.622Z,3.58
2023-05-01T08:48:40.499Z,3.28
2023-05-01T08:51:17.000Z,3.35
2023-05-01T08:53:52.708Z,2.90
2023-05-01T08:56:25.838Z,3.25
2023-05-01T08:59:00.443Z,3.10
2023-05-01T09:01:33.874Z,3.25
2023-05-01T09:04:10.242Z,2.72
2023-05-01T09:06:45.424Z,3.10
2023-05-01T09:09:17.955Z,3.05
2023-05-01T09:11:50.257Z,3.08
2023-05-01T09:14:22.817Z,3.40
2023-05-01T09:16:54.760Z,2.97
2023-05-01T09:19:31.517Z,3.40
2023-05-01T09:22:03.885Z,2.97
2023-05-01T09:24:48.074Z,3.42
2023-05-01T09:27:20.381Z,3.20
2023-05-01T09:29:53.029Z,2.78
2023-05-01T09:32:29.204Z,3.60
2023-05-01T09:35:18.066Z,3.13
2023-05-01T09:37:53.602Z,3.65
2023-05-01T09:40:31.899Z,3.65
2023-05-01T09:43:04.274Z,3.50
2023-05-01T09:45:36.946Z,3.40
2023-05-01T09:48:14.547Z,3.10
2023-05-01T09:50:50.079Z,3.50
2023-05-01T09:53:22.197Z,3.90
2023-05-01T09:56:29.586Z,3.78
2023-05-01T09:59:18.707Z,3.17
2023-05-01T10:01:52.796Z,3.55
2023-05-01T10:04:34.571Z,3.33
2023-05-01T10:07:19.103Z,3.42
2023-05-01T10:09:51.320Z,3.40
2023-05-01T10:12:28.501Z,3.78
2023-05-01T10:15:10.801Z,3.92
2023-05-01T10:17:55.938Z,3.85
2023-05-01T10:20:28.641Z,4.28
2023-05-01T10:23:04.924Z,3.95
2023-05-01T10:25:38.441Z,4.07
2023-05-01T10:28:17.178Z,4.05
2023-05-01T10:31:16.336Z,4.70
2023-05-01T10:33:50.557Z,4.18
2023-05-01T10:36:27.055Z,4.15
2023-05-01T10:39:02.618Z,3.85
2023-05-01T10:42:15.058Z,3.78
2023-05-01T10:44:48.416Z,3.90
2023-05-01T10:47:50.676Z,4.13
2023-05-01T10:50:23.501Z,4.10
2023-05-01T10:53:22.715Z,4.10
2023-05-01T10:55:57.956Z,4.00
2023-05-01T10:59:13.701Z,4.93
2023-05-01T11:02:01.963Z,4.20
2023-05-01T11:04:54.618Z,5.38
2023-05-01T11:10:31.061Z,3.90
2023-05-01T11:13:13.738Z,4.45
2023-05-01T11:15:45.821Z,3.97
2023-05-01T11:18:33.936Z,4.07
2023-05-01T11:21:06.099Z,4.28
2023-05-01T11:23:38.582Z,3.97
2023-05-01T11:26:11.458Z,4.25
2023-05-01T11:28:46.667Z,4.32
2023-05-01T11:31:21.732Z,7.95
2023-05-01T11:34:07.337Z,10.90
2023-05-01T11:37:08.525Z,10.30
2023-05-01T11:40:01.477Z,4.40
2023-05-01T11:42:33.942Z,4.28
2023-05-01T11:45:14.617Z,4.55
2023-05-01T11:47:46.972Z,3.95
2023-05-01T11:50:19.220Z,3.83
2023-05-01T11:52:53.924Z,4.15
2023-05-01T11:56:25.317Z,4.35
2023-05-01T11:59:00.006Z,3.92
2023-05-01T12:01:41.641Z,3.90
2023-05-01T12:04:32.108Z,4.03
2023-05-01T12:07:41.009Z,4.05
2023-05-01T12:10:14.091Z,4.03
2023-05-01T12:12:46.402Z,4.03
2023-05-01T12:15:18.839Z,4.60
2023-05-01T12:17:54.201Z,4.38
2023-05-01T12:20:38.625Z,4.32
2023-05-01T12:23:11.836Z,4.18
2023-05-01T12:25:44.380Z,4.85
2023-05-01T12:28:20.359Z,4.45
2023-05-01T12:30:53.276Z,4.25
2023-05-01T12:33:27.661Z,4.78
2023-05-01T12:36:27.779Z,4.70
2023-05-01T12:39:06.047Z,4.30
2023-05-01T12:41:40.025Z,4.10
2023-05-01T12:44:25.889Z,4.70
2023-05-01T12:46:59.469Z,4.57
2023-05-01T12:49:37.477Z,4.60
2023-05-01T12:52:12.240Z,4.80
2023-05-01T12:54:46.363Z,4.20
2023-05-01T12:57:19.878Z,4.40
2023-05-01T12:59:51.196Z,4.80
2023-05-01T13:02:34.422Z,5.05
2023-05-01T13:05:20.761Z,4.13
2023-05-01T13:07:54.477Z,4.45
2023-05-01T13:10:36.128Z,4.80
2023-05-01T13:13:08.832Z,4.90
2023-05-01T13:15:41.772Z,4.30
2023-05-01T13:18:14.255Z,4.90
2023-05-01T13:20:49.475Z,4.70
2023-05-01T13:23:22.331Z,4.43
2023-05-01T13:26:07.527Z,4.95
2023-05-01T13:28:49.061Z,4.78
2023-05-01T13:31:21.534Z,4.97
2023-05-01T13:33:56.418Z,4.65
2023-05-01T13:36:36.292Z,4.50
2023-05-01T13:39:21.251Z,4.70
2023-05-01T13:41:54.532Z,4.50
2023-05-01T13:44:28.750Z,4.78
2023-05-01T13:47:16.077Z,5.55
2023-05-01T13:49:51.076Z,5.10
2023-05-01T13:52:26.607Z,5.80
2023-05-01T13:55:00.738Z,4.88
2023-05-01T13:57:35.094Z,4.82
2023-05-01T14:00:28.349Z,5.03
2023-05-01T14:03:00.930Z,4.80
2023-05-01T14:05:33.668Z,4.68
2023-05-01T14:08:11.229Z,4.80
2023-05-01T14:10:44.036Z,5.05
2023-05-01T14:13:20.394Z,5.10
2023-05-01T14:15:53.708Z,4.75
2023-05-01T14:18:26.068Z,4.78
2023-05-01T14:20:58.928Z,4.55
2023-05-01T14:23:36.370Z,4.90
2023-05-01T14:26:09.480Z,5.50
2023-05-01T14:28:46.622Z,5.15
2023-05-01T14:31:27.661Z,5.32
2023-05-01T14:34:01.576Z,4.57
2023-05-01T14:36:34.307Z,6.47
2023-05-01T14:39:09.907Z,5.57
2023-05-01T14:41:45.516Z,5.10
2023-05-01T14:44:19.746Z,4.90
2023-05-01T14:46:54.066Z,4.93
2023-05-01T14:49:27.815Z,5.25
2023-05-01T14:52:02.765Z,6.00
2023-05-01T14:54:47.109Z,5.40
2023-05-01T14:57:19.616Z,5.63
2023-05-01T14:59:51.960Z,6.03
2023-05-01T15:02:27.515Z,5.43
2023-05-01T15:05:00.269Z,6.55
2023-05-01T15:07:33.710Z,5.95
2023-05-01T15:10:09.522Z,5.97
2023-05-01T15:12:42.427Z,5.13
2023-05-01T15:15:15.321Z,6.85
2023-05-01T15:17:47.936Z,6.35
2023-05-01T15:20:20.224Z,5.20
2023-05-01T15:22:52.652Z,5.45
2023-05-01T15:25:27.467Z,6.03
2023-05-01T15:27:59.942Z,5.53
2023-05-01T15:30:32.146Z,5.00
2023-05-01T15:33:04.872Z,5.70
2023-05-01T15:35:37.021Z,5.13
2023-05-01T15:38:09.500Z,4.93
2023-05-01T15:40:47.094Z,5.13
2023-05-01T15:43:19.491Z,5.20
2023-05-01T15:45:51.786Z,5.35
2023-05-01T15:48:24.153Z,5.60
2023-05-01T15:50:56.026Z,5.28
2023-05-01T15:53:28.485Z,5.53
2023-05-01T15:56:03.543Z,5.60
2023-05-01T15:58:36.084Z,5.25
2023-05-01T16:01:09.374Z,5.28
2023-05-01T16:03:47.667Z,4.93
2023-05-01T16:06:20.137Z,5.22
2023-05-01T16:08:52.478Z,5.70
2023-05-01T16:11:27.418Z,5.68
2023-05-01T16:13:59.676Z,5.07
2023-05-01T16:16:32.630Z,5.40
2023-05-01T16:19:05.109Z,5.78
2023-05-01T16:21:37.180Z,5.60
2023-05-01T16:24:10.122Z,5.45
2023-05-01T16:26:44.916Z,5.78
2023-05-01T16:29:17.230Z,5.13
2023-05-01T16:31:50.005Z,6.07
2023-05-01T16:34:28.742Z,5.47
2023-05-01T16:37:00.793Z,5.43
2023-05-01T16:39:33.045Z,4.95
2023-05-01T16:42:07.872Z,5.75
2023-05-01T16:44:40.154Z,5.03
2023-05-01T16:47:15.155Z,5.43
2023-05-01T16:49:47.761Z,6.32
2023-05-01T16:52:19.732Z,5.82
2023-05-01T16:54:52.141Z,5.75
2023-05-01T16:57:26.980Z,5.57
2023-05-01T16:59:59.651Z,5.68
2023-05-01T17:02:36.602Z,6.07
2023-05-01T17:05:10.121Z,5.65
2023-05-01T17:07:42.208Z,5.43
2023-05-01T17:10:14.761Z,5.95
2023-05-01T17:12:49.582Z,5.93
2023-05-01T17:15:22.196Z,5.80
2023-05-01T17:17:54.454Z,6.07
2023-05-01T17:20:27.772Z,6.03
2023-05-01T17:23:07.376Z,5.90
2023-05-01T17:25:40.054Z,5.47
2023-05-01T17:28:15.320Z,6.70
2023-05-01T17:30:47.944Z,6.18
2023-05-01T17:33:20.356Z,6.57
2023-05-01T17:35:55.853Z,5.90
2023-05-01T17:38:31.332Z,6.03
2023-05-01T17:41:06.767Z,6.50
2023-05-01T17:43:45.768Z,6.38
2023-05-01T17:46:21.218Z,6.70
2023-05-01T17:49:10.382Z,6.35
2023-05-01T17:51:56.201Z,6.00
2023-05-01T17:54:36.054Z,6.50
2023-05-01T17:57:17.826Z,7.03
2023-05-01T17:59:54.159Z,6.70
2023-05-01T18:02:28.113Z,6.30
2023-05-01T18:05:07.248Z,6.20
2023-05-01T18:07:42.564Z,6.18
2023-05-01T18:10:20.963Z,6.10
2023-05-01T18:12:56.553Z,6.22
2023-05-01T18:19:12.368Z,7.53
2023-05-01T18:21:44.950Z,6.82
2023-05-01T18:24:17.383Z,6.70
2023-05-01T18:26:49.520Z,7.30
2023-05-01T18:29:23.304Z,7.47
2023-05-01T18:31:57.966Z,7.43
2023-05-01T18:34:30.545Z,8.02
2023-05-01T18:37:03.128Z,8.10
2023-05-01T18:39:35.569Z,8.18
2023-05-01T18:42:07.647Z,8.15
2023-05-01T18:47:35.484Z,8.70
2023-05-01T18:50:08.752Z,8.50
2023-05-01T18:52:42.335Z,8.27
2023-05-01T18:55:14.708Z,7.88
2023-05-01T18:57:48.706Z,8.73
2023-05-01T19:00:21.793Z,9.13
2023-05-01T19:02:56.443Z,9.52
2023-05-01T19:05:29.031Z,9.73
2023-05-01T19:08:05.711Z,9.10
2023-05-01T19:10:38.165Z,7.93
2023-05-01T19:13:10.664Z,8.27
2023-05-01T19:15:44.005Z,8.73
2023-05-01T19:18:18.680Z,7.90
2023-05-01T19:20:51.341Z,8.30
2023-05-01T19:23:23.358Z,8.07
2023-05-01T19:25:55.742Z,8.40
2023-05-01T19:28:27.601Z,8.30
2023-05-01T19:31:00.042Z,8.63
2023-05-01T19:33:34.720Z,8.50
2023-05-01T19:36:07.539Z,9.05
2023-05-01T19:38:39.580Z,8.80
2023-05-01T19:41:14.121Z,8.93
2023-05-01T19:43:46.161Z,10.05
2023-05-01T19:46:18.518Z,9.25
2023-05-01T19:48:54.355Z,8.77
2023-05-01T19:51:27.054Z,8.63
2023-05-01T19:53:59.442Z,9.13
2023-05-01T19:56:32.050Z,8.57
2023-05-01T19:59:04.249Z,9.43
2023-05-01T20:01:37.282Z,9.18
2023-05-01T20:04:12.407Z,9.18
2023-05-01T20:06:45.190Z,9.32
2023-05-01T20:09:17.242Z,10.10
2023-05-01T20:11:50.066Z,9.50
2023-05-01T20:14:22.306Z,9.63
2023-05-01T20:16:54.995Z,11.25
2023-05-01T20:19:31.970Z,9.75
2023-05-01T20:22:04.764Z,10.30
2023-05-01T20:24:37.103Z,9.13
2023-05-01T20:27:10.070Z,9.35
2023-05-01T20:29:42.748Z,9.30
2023-05-01T20:32:15.629Z,9.50
2023-05-01T20:34:50.582Z,8.60
2023-05-01T20:37:23.265Z,9.60
2023-05-01T20:39:55.465Z,9.00
2023-05-01T20:42:28.268Z,8.95
2023-05-01T20:45:14.846Z,10.70
2023-05-01T20:47:47.481Z,9.52
2023-05-01T20:50:22.611Z,9.80
2023-05-01T20:52:56.584Z,9.60
2023-05-01T20:55:30.329Z,10.20
2023-05-01T20:58:03.250Z,9.90
2023-05-01T21:00:37.564Z,9.52
2023-05-01T21:03:10.730Z,9.23
2023-05-01T21:05:46.182Z,9.77
2023-05-01T21:08:18.943Z,9.45
2023-05-01T21:10:51.165Z,10.13
2023-05-01T21:13:25.323Z,9.05
2023-05-01T21:15:58.040Z,9.18
2023-05-01T21:18:33.262Z,9.65
2023-05-01T21:21:08.278Z,9.70
2023-05-01T21:23:49.770Z,10.13
2023-05-01T21:26:22.312Z,9.63
2023-05-01T21:28:55.062Z,9.98
2023-05-01T21:31:33.866Z,9.25
2023-05-01T21:34:06.620Z,9.75
2023-05-01T21:36:47.189Z,9.32
2023-05-01T21:39:22.253Z,9.50
2023-05-01T21:41:54.697Z,8.77
2023-05-01T21:44:32.857Z,9.18
2023-05-01T21:47:05.331Z,9.13
2023-05-01T21:49:38.484Z,8.73
2023-05-01T21:52:15.859Z,8.63
2023-05-01T21:54:48.549Z,9.27
2023-05-01T21:57:20.975Z,9.10
2023-05-01T21:59:57.578Z,8.68
2023-05-01T22:06:06.698Z,8.82
2023-05-01T22:08:46.918Z,9.07
2023-05-01T22:11:25.630Z,8.52
2023-05-01T22:14:00.027Z,8.40
2023-05-01T22:16:33.287Z,8.65
2023-05-01T22:19:07.869Z,8.93
2023-05-01T22:21:41.273Z,9.43
2023-05-01T22:24:17.220Z,8.02
2023-05-01T22:26:50.625Z,8.65
2023-05-01T22:29:23.147Z,7.78
2023-05-01T22:31:58.254Z,7.80
2023-05-01T22:34:31.587Z,7.57
2023-05-01T22:37:05.334Z,7.20
2023-05-01T22:39:44.081Z,7.78
2023-05-01T22:42:19.907Z,7.20
2023-05-01T22:44:52.869Z,7.30
2023-05-01T22:47:25.908Z,7.35
2023-05-01T22:49:58.459Z,7.13
2023-05-01T22:52:46.756Z,6.97
2023-05-01T22:55:21.918Z,6.40
2023-05-01T22:57:54.484Z,6.90
2023-05-01T23:00:26.794Z,6.88
2023-05-01T23:02:59.604Z,6.80
2023-05-01T23:05:32.029Z,6.40
2023-05-01T23:08:04.726Z,7.05
2023-05-01T23:10:44.473Z,6.45
2023-05-01T23:13:23.811Z,6.20
2023-05-01T23:15:56.544Z,6.07
2023-05-01T23:18:34.508Z,6.55
2023-05-01T23:21:06.913Z,6.15
2023-05-01T23:23:40.984Z,6.53
2023-05-01T23:26:26.645Z,5.75
2023-05-01T23:29:00.552Z,5.38
2023-05-01T23:31:33.205Z,6.05
2023-05-01T23:34:06.092Z,5.50
2023-05-01T23:36:38.362Z,5.95
2023-05-01T23:39:10.963Z,5.72
2023-05-01T23:41:46.677Z,5.65
2023-05-01T23:44:30.818Z,5.47
2023-05-01T23:47:03.490Z,5.30
2023-05-01T23:49:36.257Z,5.75
2023-05-01T23:52:33.592Z,5.20
2023-05-01T23:55:06.344Z,5.00
2023-05-01T23:57:41.296Z,5.50
